sensor_id;sensor_type;location;lat;lon;timestamp;temperature;humidity
66506;HTU21D;53332;51.082;5.832;2024-02-26T00:01:38;7.73;118.99
66506;HTU21D;53332;51.082;5.832;2024-02-26T00:04:03;7.71;118.99
66506;HTU21D;53332;51.082;5.832;2024-02-26T00:06:30;7.67;118.99
66506;HTU21D;53332;51.082;5.832;2024-02-26T00:08:55;7.64;118.99
66506;HTU21D;53332;51.082;5.832;2024-02-26T00:11:21;7.61;118.99
66506;HTU21D;53332;51.082;5.832;2024-02-26T00:13:46;7.60;118.99
66506;HTU21D;53332;51.082;5.832;2024-02-26T00:16:12;7.55;118.99
66506;HTU21D;53332;51.082;5.832;2024-02-26T00:18:38;7.53;118.99
66506;HTU21D;53332;51.082;5.832;2024-02-26T00:21:03;7.52;118.99
66506;HTU21D;53332;51.082;5.832;2024-02-26T00:23:29;7.53;118.99
66506;HTU21D;53332;51.082;5.832;2024-02-26T00:25:54;7.52;118.99
66506;HTU21D;53332;51.082;5.832;2024-02-26T00:28:21;7.50;118.99
66506;HTU21D;53332;51.082;5.832;2024-02-26T00:30:46;7.48;118.99
66506;HTU21D;53332;51.082;5.832;2024-02-26T00:33:12;7.45;118.99
66506;HTU21D;53332;51.082;5.832;2024-02-26T00:35:38;7.42;118.99
66506;HTU21D;53332;51.082;5.832;2024-02-26T00:38:03;7.43;118.99
66506;HTU21D;53332;51.082;5.832;2024-02-26T00:40:29;7.41;118.99
66506;HTU21D;53332;51.082;5.832;2024-02-26T00:42:55;7.41;118.99
66506;HTU21D;53332;51.082;5.832;2024-02-26T00:45:20;7.37;118.99
66506;HTU21D;53332;51.082;5.832;2024-02-26T00:47:46;7.35;118.99
66506;HTU21D;53332;51.082;5.832;2024-02-26T00:50:14;7.34;118.99
66506;HTU21D;53332;51.082;5.832;2024-02-26T00:52:39;7.34;118.99
66506;HTU21D;53332;51.082;5.832;2024-02-26T00:55:06;7.35;118.99
66506;HTU21D;53332;51.082;5.832;2024-02-26T00:57:31;7.35;118.99
66506;HTU21D;53332;51.082;5.832;2024-02-26T00:59:57;7.31;118.99
66506;HTU21D;53332;51.082;5.832;2024-02-26T01:02:22;7.33;118.99
66506;HTU21D;53332;51.082;5.832;2024-02-26T01:04:48;7.28;118.99
66506;HTU21D;53332;51.082;5.832;2024-02-26T01:07:14;7.29;118.99
66506;HTU21D;53332;51.082;5.832;2024-02-26T01:09:39;7.25;118.99
66506;HTU21D;53332;51.082;5.832;2024-02-26T01:12:05;7.30;118.99
66506;HTU21D;53332;51.082;5.832;2024-02-26T01:14:31;7.29;118.99
66506;HTU21D;53332;51.082;5.832;2024-02-26T01:16:56;7.27;118.99
66506;HTU21D;53332;51.082;5.832;2024-02-26T01:19:22;7.28;118.99
66506;HTU21D;53332;51.082;5.832;2024-02-26T01:21:47;7.25;118.99
66506;HTU21D;53332;51.082;5.832;2024-02-26T01:24:13;7.24;118.99
66506;HTU21D;53332;51.082;5.832;2024-02-26T01:26:39;7.20;118.99
66506;HTU21D;53332;51.082;5.832;2024-02-26T01:29:04;7.22;118.99
66506;HTU21D;53332;51.082;5.832;2024-02-26T01:31:30;7.19;118.99
66506;HTU21D;53332;51.082;5.832;2024-02-26T01:33:55;7.20;118.99
66506;HTU21D;53332;51.082;5.832;2024-02-26T01:36:21;7.16;118.99
66506;HTU21D;53332;51.082;5.832;2024-02-26T01:38:46;7.15;118.99
66506;HTU21D;53332;51.082;5.832;2024-02-26T01:41:13;7.12;118.99
66506;HTU21D;53332;51.082;5.832;2024-02-26T01:43:39;7.12;118.99
66506;HTU21D;53332;51.082;5.832;2024-02-26T01:46:06;7.12;118.99
66506;HTU21D;53332;51.082;5.832;2024-02-26T01:48:33;7.08;118.99
66506;HTU21D;53332;51.082;5.832;2024-02-26T01:50:59;7.08;118.99
66506;HTU21D;53332;51.082;5.832;2024-02-26T01:53:25;7.08;118.99
66506;HTU21D;53332;51.082;5.832;2024-02-26T01:55:50;7.09;118.99
66506;HTU21D;53332;51.082;5.832;2024-02-26T01:58:16;7.10;118.99
66506;HTU21D;53332;51.082;5.832;2024-02-26T02:00:43;7.07;118.99
66506;HTU21D;53332;51.082;5.832;2024-02-26T02:03:08;7.03;118.99
66506;HTU21D;53332;51.082;5.832;2024-02-26T02:05:35;6.99;118.99
66506;HTU21D;53332;51.082;5.832;2024-02-26T02:08:07;6.96;118.99
66506;HTU21D;53332;51.082;5.832;2024-02-26T02:10:33;6.97;118.99
66506;HTU21D;53332;51.082;5.832;2024-02-26T02:12:59;6.93;118.99
66506;HTU21D;53332;51.082;5.832;2024-02-26T02:15:24;6.96;118.99
66506;HTU21D;53332;51.082;5.832;2024-02-26T02:17:50;6.94;118.99
66506;HTU21D;53332;51.082;5.832;2024-02-26T02:20:17;6.95;118.99
66506;HTU21D;53332;51.082;5.832;2024-02-26T02:22:46;6.96;118.99
66506;HTU21D;53332;51.082;5.832;2024-02-26T02:25:11;6.96;118.99
66506;HTU21D;53332;51.082;5.832;2024-02-26T02:27:38;6.91;118.99
66506;HTU21D;53332;51.082;5.832;2024-02-26T02:30:04;6.95;118.99
66506;HTU21D;53332;51.082;5.832;2024-02-26T02:32:30;6.95;118.99
66506;HTU21D;53332;51.082;5.832;2024-02-26T02:34:56;6.99;118.99
66506;HTU21D;53332;51.082;5.832;2024-02-26T02:37:22;6.95;118.99
66506;HTU21D;53332;51.082;5.832;2024-02-26T02:39:47;6.94;118.99
66506;HTU21D;53332;51.082;5.832;2024-02-26T02:42:13;6.93;118.99
66506;HTU21D;53332;51.082;5.832;2024-02-26T02:44:39;6.93;118.99
66506;HTU21D;53332;51.082;5.832;2024-02-26T02:47:04;6.94;118.99
66506;HTU21D;53332;51.082;5.832;2024-02-26T02:49:30;6.95;118.99
66506;HTU21D;53332;51.082;5.832;2024-02-26T02:51:55;6.93;118.99
66506;HTU21D;53332;51.082;5.832;2024-02-26T02:54:23;6.94;118.99
66506;HTU21D;53332;51.082;5.832;2024-02-26T02:56:48;6.90;118.99
66506;HTU21D;53332;51.082;5.832;2024-02-26T02:59:14;6.91;118.99
66506;HTU21D;53332;51.082;5.832;2024-02-26T03:01:39;6.88;118.99
66506;HTU21D;53332;51.082;5.832;2024-02-26T03:04:05;6.90;118.99
66506;HTU21D;53332;51.082;5.832;2024-02-26T03:06:30;6.87;118.99
66506;HTU21D;53332;51.082;5.832;2024-02-26T03:08:56;6.87;118.99
66506;HTU21D;53332;51.082;5.832;2024-02-26T03:11:21;6.90;118.99
66506;HTU21D;53332;51.082;5.832;2024-02-26T03:13:47;6.90;118.99
66506;HTU21D;53332;51.082;5.832;2024-02-26T03:16:12;6.91;118.99
66506;HTU21D;53332;51.082;5.832;2024-02-26T03:18:39;6.93;118.99
66506;HTU21D;53332;51.082;5.832;2024-02-26T03:21:06;6.91;118.99
66506;HTU21D;53332;51.082;5.832;2024-02-26T03:23:32;6.95;118.99
66506;HTU21D;53332;51.082;5.832;2024-02-26T03:26:02;6.93;118.99
66506;HTU21D;53332;51.082;5.832;2024-02-26T03:28:28;6.93;118.99
66506;HTU21D;53332;51.082;5.832;2024-02-26T03:30:53;6.99;118.99
66506;HTU21D;53332;51.082;5.832;2024-02-26T03:33:19;6.98;118.99
66506;HTU21D;53332;51.082;5.832;2024-02-26T03:35:44;6.97;118.99
66506;HTU21D;53332;51.082;5.832;2024-02-26T03:38:10;6.95;118.99
66506;HTU21D;53332;51.082;5.832;2024-02-26T03:40:35;6.93;118.99
66506;HTU21D;53332;51.082;5.832;2024-02-26T03:43:01;6.91;118.99
66506;HTU21D;53332;51.082;5.832;2024-02-26T03:45:28;6.88;118.99
66506;HTU21D;53332;51.082;5.832;2024-02-26T03:47:53;6.89;118.99
66506;HTU21D;53332;51.082;5.832;2024-02-26T03:50:19;6.85;118.99
66506;HTU21D;53332;51.082;5.832;2024-02-26T03:52:44;6.81;118.99
66506;HTU21D;53332;51.082;5.832;2024-02-26T03:55:10;6.81;118.99
66506;HTU21D;53332;51.082;5.832;2024-02-26T03:57:36;6.88;118.99
66506;HTU21D;53332;51.082;5.832;2024-02-26T04:00:02;6.86;118.99
66506;HTU21D;53332;51.082;5.832;2024-02-26T04:02:28;6.88;118.99
66506;HTU21D;53332;51.082;5.832;2024-02-26T04:04:53;6.89;118.99
66506;HTU21D;53332;51.082;5.832;2024-02-26T04:07:19;6.86;118.99
66506;HTU21D;53332;51.082;5.832;2024-02-26T04:09:44;6.86;118.99
66506;HTU21D;53332;51.082;5.832;2024-02-26T04:12:10;6.84;118.99
66506;HTU21D;53332;51.082;5.832;2024-02-26T04:14:36;6.85;118.99
66506;HTU21D;53332;51.082;5.832;2024-02-26T04:17:02;6.85;118.99
66506;HTU21D;53332;51.082;5.832;2024-02-26T04:19:28;6.85;118.99
66506;HTU21D;53332;51.082;5.832;2024-02-26T04:21:54;6.87;118.99
66506;HTU21D;53332;51.082;5.832;2024-02-26T04:24:20;6.86;118.99
66506;HTU21D;53332;51.082;5.832;2024-02-26T04:26:46;6.85;118.99
66506;HTU21D;53332;51.082;5.832;2024-02-26T04:29:11;6.83;118.99
66506;HTU21D;53332;51.082;5.832;2024-02-26T04:31:37;6.83;118.99
66506;HTU21D;53332;51.082;5.832;2024-02-26T04:34:03;6.85;118.99
66506;HTU21D;53332;51.082;5.832;2024-02-26T04:36:28;6.86;118.99
66506;HTU21D;53332;51.082;5.832;2024-02-26T04:38:54;6.88;118.99
66506;HTU21D;53332;51.082;5.832;2024-02-26T04:41:21;6.82;118.99
66506;HTU21D;53332;51.082;5.832;2024-02-26T04:43:46;6.87;118.99
66506;HTU21D;53332;51.082;5.832;2024-02-26T04:46:12;6.84;118.99
66506;HTU21D;53332;51.082;5.832;2024-02-26T04:48:38;6.85;118.99
66506;HTU21D;53332;51.082;5.832;2024-02-26T04:51:04;6.78;118.99
66506;HTU21D;53332;51.082;5.832;2024-02-26T04:53:31;6.75;118.99
66506;HTU21D;53332;51.082;5.832;2024-02-26T04:55:56;6.82;118.99
66506;HTU21D;53332;51.082;5.832;2024-02-26T04:58:22;6.75;118.99
66506;HTU21D;53332;51.082;5.832;2024-02-26T05:00:48;6.78;118.99
66506;HTU21D;53332;51.082;5.832;2024-02-26T05:03:14;6.78;118.99
66506;HTU21D;53332;51.082;5.832;2024-02-26T05:05:44;6.76;118.99
66506;HTU21D;53332;51.082;5.832;2024-02-26T05:08:10;6.71;118.99
66506;HTU21D;53332;51.082;5.832;2024-02-26T05:10:36;6.71;118.99
66506;HTU21D;53332;51.082;5.832;2024-02-26T05:13:05;6.73;118.99
66506;HTU21D;53332;51.082;5.832;2024-02-26T05:15:30;6.74;118.99
66506;HTU21D;53332;51.082;5.832;2024-02-26T05:17:56;6.79;118.99
66506;HTU21D;53332;51.082;5.832;2024-02-26T05:20:22;6.72;118.99
66506;HTU21D;53332;51.082;5.832;2024-02-26T05:22:47;6.67;118.99
66506;HTU21D;53332;51.082;5.832;2024-02-26T05:25:16;6.64;118.99
66506;HTU21D;53332;51.082;5.832;2024-02-26T05:27:43;6.70;118.99
66506;HTU21D;53332;51.082;5.832;2024-02-26T05:30:10;6.67;118.99
66506;HTU21D;53332;51.082;5.832;2024-02-26T05:32:36;6.76;118.99
66506;HTU21D;53332;51.082;5.832;2024-02-26T05:35:02;6.75;118.99
66506;HTU21D;53332;51.082;5.832;2024-02-26T05:37:29;6.72;118.99
66506;HTU21D;53332;51.082;5.832;2024-02-26T05:39:55;6.70;118.99
66506;HTU21D;53332;51.082;5.832;2024-02-26T05:42:20;6.65;118.99
66506;HTU21D;53332;51.082;5.832;2024-02-26T05:44:46;6.59;118.99
66506;HTU21D;53332;51.082;5.832;2024-02-26T05:47:12;6.59;118.99
66506;HTU21D;53332;51.082;5.832;2024-02-26T05:49:37;6.57;118.99
66506;HTU21D;53332;51.082;5.832;2024-02-26T05:52:03;6.56;118.99
66506;HTU21D;53332;51.082;5.832;2024-02-26T05:54:28;6.55;118.99
66506;HTU21D;53332;51.082;5.832;2024-02-26T05:56:54;6.56;118.99
66506;HTU21D;53332;51.082;5.832;2024-02-26T05:59:19;6.53;118.99
66506;HTU21D;53332;51.082;5.832;2024-02-26T06:01:45;6.65;118.99
66506;HTU21D;53332;51.082;5.832;2024-02-26T06:04:11;6.50;118.99
66506;HTU21D;53332;51.082;5.832;2024-02-26T06:06:37;6.48;118.99
66506;HTU21D;53332;51.082;5.832;2024-02-26T06:09:03;6.43;118.99
66506;HTU21D;53332;51.082;5.832;2024-02-26T06:11:30;6.43;118.99
66506;HTU21D;53332;51.082;5.832;2024-02-26T06:13:56;6.44;118.99
66506;HTU21D;53332;51.082;5.832;2024-02-26T06:16:21;6.44;118.99
66506;HTU21D;53332;51.082;5.832;2024-02-26T06:18:47;6.44;118.99
66506;HTU21D;53332;51.082;5.832;2024-02-26T06:21:13;6.40;118.99
66506;HTU21D;53332;51.082;5.832;2024-02-26T06:23:39;6.38;118.99
66506;HTU21D;53332;51.082;5.832;2024-02-26T06:26:05;6.35;118.99
66506;HTU21D;53332;51.082;5.832;2024-02-26T06:28:31;6.38;118.99
66506;HTU21D;53332;51.082;5.832;2024-02-26T06:30:58;6.41;118.99
66506;HTU21D;53332;51.082;5.832;2024-02-26T06:33:24;6.41;118.99
66506;HTU21D;53332;51.082;5.832;2024-02-26T06:35:49;6.37;118.99
66506;HTU21D;53332;51.082;5.832;2024-02-26T06:38:15;6.38;118.99
66506;HTU21D;53332;51.082;5.832;2024-02-26T06:40:40;6.33;118.99
66506;HTU21D;53332;51.082;5.832;2024-02-26T06:43:06;6.39;118.99
66506;HTU21D;53332;51.082;5.832;2024-02-26T06:45:31;6.31;118.99
66506;HTU21D;53332;51.082;5.832;2024-02-26T06:47:58;6.33;118.99
66506;HTU21D;53332;51.082;5.832;2024-02-26T06:50:23;6.37;118.99
66506;HTU21D;53332;51.082;5.832;2024-02-26T06:52:49;6.33;118.99
66506;HTU21D;53332;51.082;5.832;2024-02-26T06:55:14;6.29;118.99
66506;HTU21D;53332;51.082;5.832;2024-02-26T06:57:40;6.25;118.99
66506;HTU21D;53332;51.082;5.832;2024-02-26T07:00:06;6.24;118.99
66506;HTU21D;53332;51.082;5.832;2024-02-26T07:02:32;6.25;118.99
66506;HTU21D;53332;51.082;5.832;2024-02-26T07:04:57;6.29;118.99
66506;HTU21D;53332;51.082;5.832;2024-02-26T07:07:26;6.28;118.99
66506;HTU21D;53332;51.082;5.832;2024-02-26T07:09:52;6.40;118.99
66506;HTU21D;53332;51.082;5.832;2024-02-26T07:12:17;6.42;118.99
66506;HTU21D;53332;51.082;5.832;2024-02-26T07:14:43;6.40;118.99
66506;HTU21D;53332;51.082;5.832;2024-02-26T07:17:08;6.38;118.99
66506;HTU21D;53332;51.082;5.832;2024-02-26T07:19:34;6.40;118.99
66506;HTU21D;53332;51.082;5.832;2024-02-26T07:21:59;6.44;118.99
66506;HTU21D;53332;51.082;5.832;2024-02-26T07:24:28;6.41;118.99
66506;HTU21D;53332;51.082;5.832;2024-02-26T07:26:54;6.40;118.99
66506;HTU21D;53332;51.082;5.832;2024-02-26T07:29:22;6.50;118.99
66506;HTU21D;53332;51.082;5.832;2024-02-26T07:31:48;6.46;118.99
66506;HTU21D;53332;51.082;5.832;2024-02-26T07:34:13;6.41;118.99
66506;HTU21D;53332;51.082;5.832;2024-02-26T07:36:39;6.36;118.99
66506;HTU21D;53332;51.082;5.832;2024-02-26T07:39:05;6.36;118.99
66506;HTU21D;53332;51.082;5.832;2024-02-26T07:41:31;6.45;118.99
66506;HTU21D;53332;51.082;5.832;2024-02-26T07:43:56;6.36;118.99
66506;HTU21D;53332;51.082;5.832;2024-02-26T07:46:22;6.36;118.99
66506;HTU21D;53332;51.082;5.832;2024-02-26T07:48:47;6.53;118.99
66506;HTU21D;53332;51.082;5.832;2024-02-26T07:51:13;6.54;118.99
66506;HTU21D;53332;51.082;5.832;2024-02-26T07:53:42;6.37;118.99
66506;HTU21D;53332;51.082;5.832;2024-02-26T07:56:08;6.48;118.99
66506;HTU21D;53332;51.082;5.832;2024-02-26T07:58:34;6.37;118.99
66506;HTU21D;53332;51.082;5.832;2024-02-26T08:01:00;6.34;118.99
66506;HTU21D;53332;51.082;5.832;2024-02-26T08:03:26;6.31;118.99
66506;HTU21D;53332;51.082;5.832;2024-02-26T08:05:52;6.31;118.99
66506;HTU21D;53332;51.082;5.832;2024-02-26T08:08:18;6.42;118.99
66506;HTU21D;53332;51.082;5.832;2024-02-26T08:10:43;6.41;118.99
66506;HTU21D;53332;51.082;5.832;2024-02-26T08:13:09;6.46;118.99
66506;HTU21D;53332;51.082;5.832;2024-02-26T08:15:35;6.37;118.99
66506;HTU21D;53332;51.082;5.832;2024-02-26T08:18:03;6.33;118.99
66506;HTU21D;53332;51.082;5.832;2024-02-26T08:20:29;6.31;118.99
66506;HTU21D;53332;51.082;5.832;2024-02-26T08:22:55;6.34;118.99
66506;HTU21D;53332;51.082;5.832;2024-02-26T08:25:22;6.33;118.99
66506;HTU21D;53332;51.082;5.832;2024-02-26T08:27:47;6.42;118.99
66506;HTU21D;53332;51.082;5.832;2024-02-26T08:30:14;6.36;118.99
66506;HTU21D;53332;51.082;5.832;2024-02-26T08:32:43;6.38;118.99
66506;HTU21D;53332;51.082;5.832;2024-02-26T08:35:08;6.39;118.99
66506;HTU21D;53332;51.082;5.832;2024-02-26T08:37:34;6.39;118.99
66506;HTU21D;53332;51.082;5.832;2024-02-26T08:39:59;6.42;118.99
66506;HTU21D;53332;51.082;5.832;2024-02-26T08:42:25;6.43;118.99
66506;HTU21D;53332;51.082;5.832;2024-02-26T08:44:50;6.53;118.99
66506;HTU21D;53332;51.082;5.832;2024-02-26T08:47:16;6.49;118.99
66506;HTU21D;53332;51.082;5.832;2024-02-26T08:49:45;6.48;118.99
66506;HTU21D;53332;51.082;5.832;2024-02-26T08:52:10;6.51;118.99
66506;HTU21D;53332;51.082;5.832;2024-02-26T08:54:36;6.68;118.99
66506;HTU21D;53332;51.082;5.832;2024-02-26T08:57:02;6.59;118.99
66506;HTU21D;53332;51.082;5.832;2024-02-26T08:59:28;6.56;118.99
66506;HTU21D;53332;51.082;5.832;2024-02-26T09:01:54;6.52;118.99
66506;HTU21D;53332;51.082;5.832;2024-02-26T09:04:19;6.56;118.99
66506;HTU21D;53332;51.082;5.832;2024-02-26T09:06:45;6.45;118.99
66506;HTU21D;53332;51.082;5.832;2024-02-26T09:09:10;6.52;118.99
66506;HTU21D;53332;51.082;5.832;2024-02-26T09:11:36;6.57;118.99
66506;HTU21D;53332;51.082;5.832;2024-02-26T09:14:02;6.72;118.99
66506;HTU21D;53332;51.082;5.832;2024-02-26T09:16:29;6.64;118.99
66506;HTU21D;53332;51.082;5.832;2024-02-26T09:18:56;6.52;118.99
66506;HTU21D;53332;51.082;5.832;2024-02-26T09:21:22;6.51;118.99
66506;HTU21D;53332;51.082;5.832;2024-02-26T09:23:49;6.63;118.99
66506;HTU21D;53332;51.082;5.832;2024-02-26T09:26:15;6.63;118.99
66506;HTU21D;53332;51.082;5.832;2024-02-26T09:28:42;6.57;118.99
66506;HTU21D;53332;51.082;5.832;2024-02-26T09:31:07;6.55;118.99
66506;HTU21D;53332;51.082;5.832;2024-02-26T09:33:33;6.65;118.99
66506;HTU21D;53332;51.082;5.832;2024-02-26T09:35:59;6.60;118.99
66506;HTU21D;53332;51.082;5.832;2024-02-26T09:38:26;6.64;118.99
66506;HTU21D;53332;51.082;5.832;2024-02-26T09:40:52;6.76;118.99
66506;HTU21D;53332;51.082;5.832;2024-02-26T09:43:21;6.65;118.99
66506;HTU21D;53332;51.082;5.832;2024-02-26T09:45:51;6.69;118.99
66506;HTU21D;53332;51.082;5.832;2024-02-26T09:48:17;6.76;118.99
66506;HTU21D;53332;51.082;5.832;2024-02-26T09:50:44;6.66;118.99
66506;HTU21D;53332;51.082;5.832;2024-02-26T09:53:13;6.63;118.99
66506;HTU21D;53332;51.082;5.832;2024-02-26T09:55:40;6.65;118.99
66506;HTU21D;53332;51.082;5.832;2024-02-26T09:58:06;6.74;118.99
66506;HTU21D;53332;51.082;5.832;2024-02-26T10:00:37;6.68;118.99
66506;HTU21D;53332;51.082;5.832;2024-02-26T10:03:04;6.83;118.99
66506;HTU21D;53332;51.082;5.832;2024-02-26T10:05:32;6.84;118.99
66506;HTU21D;53332;51.082;5.832;2024-02-26T10:07:59;6.78;118.99
66506;HTU21D;53332;51.082;5.832;2024-02-26T10:10:29;6.78;118.99
66506;HTU21D;53332;51.082;5.832;2024-02-26T10:12:54;6.79;118.99
66506;HTU21D;53332;51.082;5.832;2024-02-26T10:15:20;6.70;118.99
66506;HTU21D;53332;51.082;5.832;2024-02-26T10:17:46;6.82;118.99
66506;HTU21D;53332;51.082;5.832;2024-02-26T10:20:18;6.89;118.99
66506;HTU21D;53332;51.082;5.832;2024-02-26T10:22:47;6.79;118.99
66506;HTU21D;53332;51.082;5.832;2024-02-26T10:25:13;6.82;118.99
66506;HTU21D;53332;51.082;5.832;2024-02-26T10:27:42;6.76;118.99
66506;HTU21D;53332;51.082;5.832;2024-02-26T10:32:45;7.00;118.99
66506;HTU21D;53332;51.082;5.832;2024-02-26T10:35:13;6.97;118.99
66506;HTU21D;53332;51.082;5.832;2024-02-26T10:37:40;6.93;118.99
66506;HTU21D;53332;51.082;5.832;2024-02-26T10:40:09;7.12;118.99
66506;HTU21D;53332;51.082;5.832;2024-02-26T10:42:35;7.02;118.99
66506;HTU21D;53332;51.082;5.832;2024-02-26T10:45:00;6.97;118.99
66506;HTU21D;53332;51.082;5.832;2024-02-26T10:47:28;6.87;118.99
66506;HTU21D;53332;51.082;5.832;2024-02-26T10:49:56;6.70;118.99
66506;HTU21D;53332;51.082;5.832;2024-02-26T10:52:23;6.70;118.99
66506;HTU21D;53332;51.082;5.832;2024-02-26T10:54:53;6.70;118.99
66506;HTU21D;53332;51.082;5.832;2024-02-26T10:57:23;6.74;118.99
66506;HTU21D;53332;51.082;5.832;2024-02-26T10:59:51;6.76;118.99
66506;HTU21D;53332;51.082;5.832;2024-02-26T11:02:20;6.87;118.99
66506;HTU21D;53332;51.082;5.832;2024-02-26T11:04:46;6.89;118.99
66506;HTU21D;53332;51.082;5.832;2024-02-26T11:07:12;7.05;118.99
66506;HTU21D;53332;51.082;5.832;2024-02-26T11:09:40;7.08;118.99
66506;HTU21D;53332;51.082;5.832;2024-02-26T11:12:12;6.97;118.99
66506;HTU21D;53332;51.082;5.832;2024-02-26T11:14:45;6.94;118.99
66506;HTU21D;53332;51.082;5.832;2024-02-26T11:17:13;6.95;118.99
66506;HTU21D;53332;51.082;5.832;2024-02-26T11:19:43;6.86;118.99
66506;HTU21D;53332;51.082;5.832;2024-02-26T11:22:09;6.88;118.99
66506;HTU21D;53332;51.082;5.832;2024-02-26T11:24:35;6.90;118.99
66506;HTU21D;53332;51.082;5.832;2024-02-26T11:27:09;6.86;118.99
66506;HTU21D;53332;51.082;5.832;2024-02-26T11:29:50;6.87;118.99
66506;HTU21D;53332;51.082;5.832;2024-02-26T11:32:17;6.89;118.99
66506;HTU21D;53332;51.082;5.832;2024-02-26T11:34:44;6.88;118.99
66506;HTU21D;53332;51.082;5.832;2024-02-26T11:37:11;6.84;118.99
66506;HTU21D;53332;51.082;5.832;2024-02-26T11:39:39;6.88;118.99
66506;HTU21D;53332;51.082;5.832;2024-02-26T11:42:07;6.93;118.99
66506;HTU21D;53332;51.082;5.832;2024-02-26T11:44:34;6.96;118.99
66506;HTU21D;53332;51.082;5.832;2024-02-26T11:47:10;6.96;118.99
66506;HTU21D;53332;51.082;5.832;2024-02-26T11:49:35;6.94;118.99
66506;HTU21D;53332;51.082;5.832;2024-02-26T11:52:06;6.98;118.99
66506;HTU21D;53332;51.082;5.832;2024-02-26T11:54:52;7.08;118.99
66506;HTU21D;53332;51.082;5.832;2024-02-26T11:59:47;7.14;118.99
66506;HTU21D;53332;51.082;5.832;2024-02-26T12:05:31;7.17;118.99
66506;HTU21D;53332;51.082;5.832;2024-02-26T12:08:06;7.03;118.99
66506;HTU21D;53332;51.082;5.832;2024-02-26T12:10:39;7.08;118.99
66506;HTU21D;53332;51.082;5.832;2024-02-26T12:13:05;7.04;118.99
66506;HTU21D;53332;51.082;5.832;2024-02-26T12:18:18;7.27;118.99
66506;HTU21D;53332;51.082;5.832;2024-02-26T12:20:44;7.23;118.99
66506;HTU21D;53332;51.082;5.832;2024-02-26T12:23:15;7.27;118.99
66506;HTU21D;53332;51.082;5.832;2024-02-26T12:25:43;7.16;118.99
66506;HTU21D;53332;51.082;5.832;2024-02-26T12:28:09;7.11;118.99
66506;HTU21D;53332;51.082;5.832;2024-02-26T12:30:35;7.13;118.99
66506;HTU21D;53332;51.082;5.832;2024-02-26T12:33:02;7.13;118.99
66506;HTU21D;53332;51.082;5.832;2024-02-26T12:35:28;7.41;118.99
66506;HTU21D;53332;51.082;5.832;2024-02-26T12:37:57;7.24;118.99
66506;HTU21D;53332;51.082;5.832;2024-02-26T12:40:23;7.13;118.99
66506;HTU21D;53332;51.082;5.832;2024-02-26T12:42:49;7.23;118.99
66506;HTU21D;53332;51.082;5.832;2024-02-26T12:45:14;7.40;118.99
66506;HTU21D;53332;51.082;5.832;2024-02-26T12:47:42;7.37;118.99
66506;HTU21D;53332;51.082;5.832;2024-02-26T12:50:10;7.56;118.99
66506;HTU21D;53332;51.082;5.832;2024-02-26T12:52:45;7.44;118.99
66506;HTU21D;53332;51.082;5.832;2024-02-26T12:55:20;7.54;118.99
66506;HTU21D;53332;51.082;5.832;2024-02-26T12:57:46;7.40;118.99
66506;HTU21D;53332;51.082;5.832;2024-02-26T13:00:18;7.63;118.99
66506;HTU21D;53332;51.082;5.832;2024-02-26T13:02:45;7.56;118.99
66506;HTU21D;53332;51.082;5.832;2024-02-26T13:05:13;7.55;118.99
66506;HTU21D;53332;51.082;5.832;2024-02-26T13:07:43;7.50;118.99
66506;HTU21D;53332;51.082;5.832;2024-02-26T13:10:09;7.60;118.99
66506;HTU21D;53332;51.082;5.832;2024-02-26T13:12:41;7.63;118.99
66506;HTU21D;53332;51.082;5.832;2024-02-26T13:15:07;7.58;118.99
66506;HTU21D;53332;51.082;5.832;2024-02-26T13:17:33;7.62;118.99
66506;HTU21D;53332;51.082;5.832;2024-02-26T13:19:59;7.63;118.99
66506;HTU21D;53332;51.082;5.832;2024-02-26T13:22:25;7.71;118.99
66506;HTU21D;53332;51.082;5.832;2024-02-26T13:24:55;7.60;118.99
66506;HTU21D;53332;51.082;5.832;2024-02-26T13:27:22;7.64;118.99
66506;HTU21D;53332;51.082;5.832;2024-02-26T13:29:48;7.64;118.99
66506;HTU21D;53332;51.082;5.832;2024-02-26T13:32:13;7.62;118.99
66506;HTU21D;53332;51.082;5.832;2024-02-26T13:34:39;7.59;118.99
66506;HTU21D;53332;51.082;5.832;2024-02-26T13:37:04;7.58;118.99
66506;HTU21D;53332;51.082;5.832;2024-02-26T13:39:31;7.68;118.99
66506;HTU21D;53332;51.082;5.832;2024-02-26T13:41:56;7.49;118.99
66506;HTU21D;53332;51.082;5.832;2024-02-26T13:44:23;7.44;118.99
66506;HTU21D;53332;51.082;5.832;2024-02-26T13:46:49;7.56;118.99
66506;HTU21D;53332;51.082;5.832;2024-02-26T13:49:15;7.58;118.99
66506;HTU21D;53332;51.082;5.832;2024-02-26T13:51:41;7.56;118.99
66506;HTU21D;53332;51.082;5.832;2024-02-26T13:54:07;7.72;118.99
66506;HTU21D;53332;51.082;5.832;2024-02-26T13:56:33;7.60;118.99
66506;HTU21D;53332;51.082;5.832;2024-02-26T13:58:59;7.52;118.99
66506;HTU21D;53332;51.082;5.832;2024-02-26T14:01:25;7.54;118.99
66506;HTU21D;53332;51.082;5.832;2024-02-26T14:03:50;7.53;118.99
66506;HTU21D;53332;51.082;5.832;2024-02-26T14:06:16;7.54;118.99
66506;HTU21D;53332;51.082;5.832;2024-02-26T14:08:42;7.48;118.99
66506;HTU21D;53332;51.082;5.832;2024-02-26T14:11:08;7.49;118.99
66506;HTU21D;53332;51.082;5.832;2024-02-26T14:13:33;7.48;118.99
66506;HTU21D;53332;51.082;5.832;2024-02-26T14:15:59;7.46;118.99
66506;HTU21D;53332;51.082;5.832;2024-02-26T14:18:24;7.47;118.99
66506;HTU21D;53332;51.082;5.832;2024-02-26T14:20:50;7.45;118.99
66506;HTU21D;53332;51.082;5.832;2024-02-26T14:23:16;7.60;118.99
66506;HTU21D;53332;51.082;5.832;2024-02-26T14:25:42;7.63;118.99
66506;HTU21D;53332;51.082;5.832;2024-02-26T14:28:07;7.54;118.99
66506;HTU21D;53332;51.082;5.832;2024-02-26T14:30:33;7.67;118.99
66506;HTU21D;53332;51.082;5.832;2024-02-26T14:33:12;7.67;118.99
66506;HTU21D;53332;51.082;5.832;2024-02-26T14:35:38;7.62;118.99
66506;HTU21D;53332;51.082;5.832;2024-02-26T14:38:04;7.73;118.99
66506;HTU21D;53332;51.082;5.832;2024-02-26T14:40:29;7.73;118.99
66506;HTU21D;53332;51.082;5.832;2024-02-26T14:42:55;7.76;118.99
66506;HTU21D;53332;51.082;5.832;2024-02-26T14:45:22;7.62;118.99
66506;HTU21D;53332;51.082;5.832;2024-02-26T14:47:48;7.67;118.99
66506;HTU21D;53332;51.082;5.832;2024-02-26T14:50:13;7.89;118.99
66506;HTU21D;53332;51.082;5.832;2024-02-26T14:52:39;7.81;118.99
66506;HTU21D;53332;51.082;5.832;2024-02-26T14:55:05;7.82;118.99
66506;HTU21D;53332;51.082;5.832;2024-02-26T14:57:31;7.72;118.99
66506;HTU21D;53332;51.082;5.832;2024-02-26T14:59:56;7.96;118.99
66506;HTU21D;53332;51.082;5.832;2024-02-26T15:02:22;7.75;118.99
66506;HTU21D;53332;51.082;5.832;2024-02-26T15:04:47;7.83;118.99
66506;HTU21D;53332;51.082;5.832;2024-02-26T15:07:13;7.70;118.99
66506;HTU21D;53332;51.082;5.832;2024-02-26T15:09:39;7.61;118.99
66506;HTU21D;53332;51.082;5.832;2024-02-26T15:12:05;7.78;118.99
66506;HTU21D;53332;51.082;5.832;2024-02-26T15:14:34;7.70;118.99
66506;HTU21D;53332;51.082;5.832;2024-02-26T15:17:00;7.73;118.99
66506;HTU21D;53332;51.082;5.832;2024-02-26T15:19:26;7.85;118.99
66506;HTU21D;53332;51.082;5.832;2024-02-26T15:21:51;7.68;118.99